createdAt,value
2018-02-24T00:02:02.253Z,4.43
2018-02-24T00:04:29.721Z,3.83
2018-02-24T00:06:57.172Z,4.40
2018-02-24T00:09:24.634Z,4.27
2018-02-24T00:11:52.082Z,4.67
2018-02-24T00:14:19.541Z,4.10
2018-02-24T00:16:46.993Z,4.00
2018-02-24T00:19:14.456Z,4.43
2018-02-24T00:21:41.909Z,4.50
2018-02-24T00:24:09.366Z,3.73
2018-02-24T00:26:36.818Z,4.43
2018-02-24T00:29:04.277Z,4.47
2018-02-24T00:31:31.733Z,4.33
2018-02-24T00:33:59.193Z,3.80
2018-02-24T00:36:26.641Z,4.43
2018-02-24T00:38:55.625Z,3.90
2018-02-24T00:41:23.090Z,3.97
2018-02-24T00:43:50.538Z,3.60
2018-02-24T00:46:18.001Z,3.90
2018-02-24T00:48:45.452Z,4.37
2018-02-24T00:51:12.925Z,3.83
2018-02-24T00:53:40.372Z,4.10
2018-02-24T00:56:07.836Z,3.97
2018-02-24T00:58:35.280Z,3.97
2018-02-24T01:01:02.748Z,3.77
2018-02-24T01:03:30.203Z,3.63
2018-02-24T01:05:57.664Z,3.77
2018-02-24T01:08:25.114Z,4.20
2018-02-24T01:10:52.573Z,4.03
2018-02-24T01:13:20.113Z,4.00
2018-02-24T01:15:47.575Z,3.90
2018-02-24T01:18:15.137Z,4.40
2018-02-24T01:20:42.598Z,3.83
2018-02-24T01:23:10.056Z,3.80
2018-02-24T01:25:37.529Z,4.00
2018-02-24T01:28:05.745Z,3.57
2018-02-24T01:30:33.205Z,4.13
2018-02-24T01:33:00.658Z,3.73
2018-02-24T01:35:28.113Z,4.37
2018-02-24T01:37:55.570Z,3.40
2018-02-24T01:40:23.033Z,3.93
2018-02-24T01:42:50.484Z,3.50
2018-02-24T01:45:17.961Z,3.93
2018-02-24T01:47:45.408Z,3.63
2018-02-24T01:50:12.877Z,3.97
2018-02-24T01:52:40.484Z,3.80
2018-02-24T01:55:07.928Z,3.43
2018-02-24T01:57:36.171Z,3.43
2018-02-24T02:00:03.620Z,3.97
2018-02-24T02:02:31.077Z,3.67
2018-02-24T02:04:58.529Z,3.77
2018-02-24T02:07:25.981Z,3.67
2018-02-24T02:09:53.431Z,3.70
2018-02-24T02:12:20.901Z,3.10
2018-02-24T02:14:48.360Z,3.50
2018-02-24T02:17:15.816Z,3.50
2018-02-24T02:19:43.277Z,3.20
2018-02-24T02:22:10.741Z,3.50
2018-02-24T02:24:38.187Z,3.50
2018-02-24T02:27:05.736Z,3.50
2018-02-24T02:29:33.199Z,3.40
2018-02-24T02:32:00.661Z,3.70
2018-02-24T02:34:28.117Z,3.37
2018-02-24T02:36:55.575Z,3.63
2018-02-24T02:39:23.031Z,3.30
2018-02-24T02:41:50.491Z,3.10
2018-02-24T02:44:17.950Z,3.27
2018-02-24T02:46:45.408Z,3.63
2018-02-24T02:49:12.960Z,3.63
2018-02-24T02:51:40.415Z,3.47
2018-02-24T02:54:07.869Z,2.97
2018-02-24T02:56:35.333Z,3.40
2018-02-24T02:59:02.781Z,3.33
2018-02-24T03:01:30.229Z,4.07
2018-02-24T03:03:57.694Z,3.33
2018-02-24T03:06:25.142Z,3.60
2018-02-24T03:08:52.597Z,3.40
2018-02-24T03:11:20.053Z,3.27
2018-02-24T03:13:47.504Z,3.00
2018-02-24T03:16:15.067Z,3.83
2018-02-24T03:18:42.625Z,3.77
2018-02-24T03:21:10.072Z,3.00
2018-02-24T03:23:37.535Z,3.00
2018-02-24T03:26:04.982Z,3.20
2018-02-24T03:28:32.443Z,3.20
2018-02-24T03:31:00.064Z,3.27
2018-02-24T03:33:27.518Z,3.40
2018-02-24T03:35:54.965Z,3.57
2018-02-24T03:38:22.429Z,2.93
2018-02-24T03:40:49.884Z,3.07
2018-02-24T03:43:17.359Z,3.13
2018-02-24T03:45:55.480Z,3.10
2018-02-24T03:48:22.948Z,3.30
2018-02-24T03:50:50.403Z,3.30
2018-02-24T03:53:17.844Z,3.07
2018-02-24T03:55:45.591Z,3.43
2018-02-24T03:58:13.049Z,3.37
2018-02-24T04:00:40.510Z,3.10
2018-02-24T04:03:07.973Z,3.40
2018-02-24T04:05:35.426Z,3.33
2018-02-24T04:08:02.882Z,3.83
2018-02-24T04:10:30.345Z,3.07
2018-02-24T04:12:57.822Z,3.43
2018-02-24T04:15:25.381Z,3.03
2018-02-24T04:17:52.837Z,3.10
2018-02-24T04:20:20.394Z,3.80
2018-02-24T04:22:47.854Z,3.30
2018-02-24T04:25:15.311Z,3.40
2018-02-24T04:27:42.763Z,3.60
2018-02-24T04:30:10.225Z,3.10
2018-02-24T04:32:39.212Z,3.10
2018-02-24T04:35:06.793Z,3.00
2018-02-24T04:37:35.050Z,2.83
2018-02-24T04:40:02.522Z,2.73
2018-02-24T04:42:30.736Z,3.33
2018-02-24T04:44:58.197Z,2.90
2018-02-24T04:47:25.654Z,3.07
2018-02-24T04:49:53.105Z,3.63
2018-02-24T04:52:20.574Z,2.90
2018-02-24T04:54:48.017Z,3.30
2018-02-24T04:57:15.478Z,3.00
2018-02-24T04:59:42.941Z,2.80
2018-02-24T05:02:10.397Z,2.90
2018-02-24T05:04:37.854Z,3.70
2018-02-24T05:07:05.312Z,3.00
2018-02-24T05:09:32.769Z,3.03
2018-02-24T05:12:00.246Z,2.73
2018-02-24T05:14:27.698Z,3.37
2018-02-24T05:16:55.249Z,2.90
2018-02-24T05:19:22.704Z,2.97
2018-02-24T05:21:50.273Z,2.90
2018-02-24T05:24:17.717Z,3.10
2018-02-24T05:26:45.286Z,2.77
2018-02-24T05:29:12.853Z,2.80
2018-02-24T05:31:40.348Z,2.77
2018-02-24T05:34:08.593Z,2.70
2018-02-24T05:36:36.058Z,2.60
2018-02-24T05:39:04.306Z,2.73
2018-02-24T05:41:31.763Z,3.00
2018-02-24T05:43:59.219Z,2.90
2018-02-24T05:46:26.684Z,2.90
2018-02-24T05:48:54.138Z,2.80
2018-02-24T05:51:21.608Z,2.73
2018-02-24T05:53:49.052Z,2.80
2018-02-24T05:56:17.282Z,2.73
2018-02-24T05:58:44.737Z,2.90
2018-02-24T06:01:12.197Z,2.80
2018-02-24T06:03:39.694Z,2.90
2018-02-24T06:06:07.146Z,2.80
2018-02-24T06:08:34.601Z,2.77
2018-02-24T06:11:02.049Z,2.60
2018-02-24T06:13:29.514Z,2.70
2018-02-24T06:15:56.964Z,2.57
2018-02-24T06:18:24.423Z,2.60
2018-02-24T06:20:51.881Z,2.43
2018-02-24T06:23:19.338Z,2.70
2018-02-24T06:25:46.795Z,2.60
2018-02-24T06:28:14.253Z,2.80
2018-02-24T06:30:41.718Z,2.70
2018-02-24T06:33:09.185Z,2.47
2018-02-24T06:35:37.406Z,2.73
2018-02-24T06:38:04.875Z,2.93
2018-02-24T06:40:32.337Z,2.60
2018-02-24T06:42:59.802Z,3.13
2018-02-24T06:45:27.253Z,2.73
2018-02-24T06:47:54.711Z,2.83
2018-02-24T06:50:22.165Z,2.67
2018-02-24T06:52:49.621Z,2.77
2018-02-24T06:55:17.080Z,2.63
2018-02-24T06:57:44.534Z,2.97
2018-02-24T07:00:11.993Z,2.30
2018-02-24T07:02:39.445Z,2.77
2018-02-24T07:05:06.909Z,2.57
2018-02-24T07:07:34.362Z,2.60
2018-02-24T07:10:01.821Z,2.60
2018-02-24T07:12:29.373Z,2.90
2018-02-24T07:14:56.833Z,2.70
2018-02-24T07:17:24.285Z,2.50
2018-02-24T07:19:51.741Z,2.60
2018-02-24T07:22:19.302Z,2.20
2018-02-24T07:24:46.757Z,2.50
2018-02-24T07:27:14.213Z,2.60
2018-02-24T07:29:41.674Z,2.63
2018-02-24T07:32:09.128Z,2.63
2018-02-24T07:34:36.686Z,2.13
2018-02-24T07:37:05.677Z,2.63
2018-02-24T07:39:33.142Z,2.83
2018-02-24T07:42:00.589Z,2.50
2018-02-24T07:44:28.058Z,3.27
2018-02-24T07:46:56.282Z,3.07
2018-02-24T07:49:23.760Z,3.27
2018-02-24T07:51:51.220Z,2.77
2018-02-24T07:54:19.160Z,3.20
2018-02-24T07:56:46.612Z,2.80
2018-02-24T07:59:14.078Z,3.40
2018-02-24T08:01:41.546Z,3.40
2018-02-24T08:04:09.035Z,3.13
2018-02-24T08:06:36.485Z,3.10
2018-02-24T08:09:03.945Z,2.53
2018-02-24T08:11:31.406Z,2.70
2018-02-24T08:13:59.681Z,2.00
2018-02-24T08:16:27.145Z,3.13
2018-02-24T08:18:55.371Z,2.70
2018-02-24T08:21:22.829Z,2.47
2018-02-24T08:23:50.284Z,2.10
2018-02-24T08:26:17.747Z,2.30
2018-02-24T08:28:45.199Z,2.67
2018-02-24T08:31:12.655Z,2.20
2018-02-24T08:33:40.119Z,2.50
2018-02-24T08:36:07.578Z,2.73
2018-02-24T08:38:35.033Z,2.10
2018-02-24T08:41:02.494Z,2.03
2018-02-24T08:43:29.946Z,2.07
2018-02-24T08:45:57.400Z,2.60
2018-02-24T08:48:24.849Z,1.90
2018-02-24T08:50:52.338Z,2.57
2018-02-24T08:53:19.780Z,2.60
2018-02-24T08:55:48.013Z,2.13
2018-02-24T08:58:15.467Z,2.10
2018-02-24T09:00:42.924Z,1.97
2018-02-24T09:03:10.379Z,2.50
2018-02-24T09:05:37.836Z,2.67
2018-02-24T09:08:05.351Z,2.80
2018-02-24T09:10:32.810Z,2.10
2018-02-24T09:13:00.261Z,2.20
2018-02-24T09:15:27.741Z,2.60
2018-02-24T09:17:55.961Z,2.73
2018-02-24T09:20:23.425Z,2.80
2018-02-24T09:22:50.890Z,2.40
2018-02-24T09:25:18.470Z,2.73
2018-02-24T09:27:45.930Z,2.10
2018-02-24T09:30:13.393Z,2.50
2018-02-24T09:32:41.618Z,2.23
2018-02-24T09:35:09.083Z,2.00
2018-02-24T09:37:36.535Z,2.47
2018-02-24T09:40:04.076Z,2.20
2018-02-24T09:42:31.549Z,2.60
2018-02-24T09:44:59.041Z,2.10
2018-02-24T09:47:26.497Z,2.40
2018-02-24T09:49:54.718Z,2.13
2018-02-24T09:52:22.177Z,2.33
2018-02-24T09:54:49.631Z,2.17
2018-02-24T09:57:17.084Z,2.30
2018-02-24T09:59:44.537Z,2.33
2018-02-24T10:02:12.001Z,2.17
2018-02-24T10:04:39.455Z,1.97
2018-02-24T10:07:06.913Z,2.17
2018-02-24T10:09:34.370Z,2.90
2018-02-24T10:12:01.826Z,2.20
2018-02-24T10:14:29.272Z,2.20
2018-02-24T10:16:56.771Z,1.97
2018-02-24T10:19:24.222Z,2.77
2018-02-24T10:21:51.715Z,2.07
2018-02-24T10:24:20.084Z,2.30
2018-02-24T10:26:47.532Z,2.20
2018-02-24T10:29:15.761Z,2.17
2018-02-24T10:31:43.235Z,2.43
2018-02-24T10:34:10.681Z,2.93
2018-02-24T10:36:38.142Z,2.40
2018-02-24T10:39:05.606Z,1.83
2018-02-24T10:41:33.066Z,2.30
2018-02-24T10:44:00.541Z,2.30
2018-02-24T10:46:28.784Z,2.27
2018-02-24T10:49:07.877Z,1.60
2018-02-24T10:51:35.330Z,2.13
2018-02-24T10:54:02.795Z,2.53
2018-02-24T10:56:30.304Z,2.40
2018-02-24T10:58:57.776Z,1.90
2018-02-24T11:01:25.246Z,2.67
2018-02-24T11:03:53.470Z,2.53
2018-02-24T11:06:20.924Z,1.80
2018-02-24T11:08:48.420Z,2.10
2018-02-24T11:11:15.920Z,1.93
2018-02-24T11:13:43.392Z,2.60
2018-02-24T11:16:10.858Z,2.67
2018-02-24T11:18:38.690Z,1.93
2018-02-24T11:21:06.186Z,2.03
2018-02-24T11:23:33.661Z,2.57
2018-02-24T11:26:01.121Z,2.00
2018-02-24T11:28:29.349Z,2.13
2018-02-24T11:30:56.806Z,2.40
2018-02-24T11:33:24.273Z,2.00
2018-02-24T11:35:51.731Z,2.33
2018-02-24T11:38:19.188Z,2.00
2018-02-24T11:40:46.647Z,2.17
2018-02-24T11:43:14.129Z,2.70
2018-02-24T11:45:41.595Z,2.53
2018-02-24T11:48:09.828Z,2.50
2018-02-24T11:50:37.296Z,2.43
2018-02-24T11:53:04.853Z,2.63
2018-02-24T11:55:32.429Z,2.63
2018-02-24T11:57:59.971Z,2.47
2018-02-24T12:00:27.436Z,2.57
2018-02-24T12:02:54.949Z,3.03
2018-02-24T12:05:22.417Z,2.00
2018-02-24T12:07:49.876Z,2.90
2018-02-24T12:10:17.342Z,2.50
2018-02-24T12:12:44.806Z,2.90
2018-02-24T12:15:13.787Z,2.67
2018-02-24T12:17:41.239Z,2.40
2018-02-24T12:20:08.698Z,2.73
2018-02-24T12:22:36.156Z,2.30
2018-02-24T12:25:03.613Z,1.97
2018-02-24T12:27:31.067Z,2.07
2018-02-24T12:29:58.530Z,2.20
2018-02-24T12:32:25.984Z,2.43
2018-02-24T12:34:53.451Z,2.50
2018-02-24T12:37:20.901Z,2.90
2018-02-24T12:39:48.362Z,2.07
2018-02-24T12:42:15.818Z,2.40
2018-02-24T12:44:43.285Z,2.40
2018-02-24T12:47:11.105Z,2.17
2018-02-24T12:49:38.584Z,2.20
2018-02-24T12:52:06.042Z,2.60
2018-02-24T12:54:33.505Z,2.63
2018-02-24T12:57:00.964Z,2.43
2018-02-24T12:59:28.532Z,2.20
2018-02-24T13:01:55.987Z,2.17
2018-02-24T13:04:23.490Z,2.20
2018-02-24T13:06:50.956Z,2.47
2018-02-24T13:09:18.405Z,2.13
2018-02-24T13:11:45.874Z,2.97
2018-02-24T13:14:13.325Z,2.23
2018-02-24T13:16:40.790Z,2.33
2018-02-24T13:19:08.242Z,2.17
2018-02-24T13:21:35.704Z,2.00
2018-02-24T13:24:03.168Z,2.30
2018-02-24T13:26:30.631Z,2.27
2018-02-24T13:28:58.086Z,1.80
2018-02-24T13:31:25.545Z,1.93
2018-02-24T13:33:53.024Z,1.80
2018-02-24T13:36:21.254Z,2.20
2018-02-24T13:38:48.709Z,1.87
2018-02-24T13:41:16.166Z,1.63
2018-02-24T13:43:43.731Z,1.97
2018-02-24T13:46:11.196Z,2.63
2018-02-24T13:48:38.650Z,1.77
2018-02-24T13:51:06.116Z,1.83
2018-02-24T13:53:33.577Z,2.03
2018-02-24T13:56:01.049Z,1.83
2018-02-24T13:58:28.500Z,1.90
2018-02-24T14:00:55.978Z,2.00
2018-02-24T14:03:24.206Z,2.00
2018-02-24T14:05:51.766Z,1.80
2018-02-24T14:08:19.222Z,2.10
2018-02-24T14:10:46.674Z,1.90
2018-02-24T14:13:14.135Z,2.70
2018-02-24T14:15:41.586Z,1.80
2018-02-24T14:18:09.057Z,2.03
2018-02-24T14:20:36.609Z,2.30
2018-02-24T14:23:04.066Z,2.30
2018-02-24T14:25:31.519Z,1.70
2018-02-24T14:27:59.779Z,1.83
2018-02-24T14:30:27.255Z,1.90
2018-02-24T14:32:54.729Z,2.20
2018-02-24T14:35:22.957Z,1.67
2018-02-24T14:37:50.493Z,1.90
2018-02-24T14:40:18.001Z,2.10
2018-02-24T14:42:45.562Z,2.37
2018-02-24T14:45:13.041Z,2.03
2018-02-24T14:47:40.570Z,2.33
2018-02-24T14:50:08.027Z,1.90
2018-02-24T14:52:35.491Z,1.93
2018-02-24T14:55:02.942Z,1.97
2018-02-24T14:57:30.942Z,1.77
2018-02-24T14:59:59.175Z,1.73
2018-02-24T15:02:26.647Z,2.00
2018-02-24T15:04:54.101Z,2.83
2018-02-24T15:07:21.557Z,1.80
2018-02-24T15:09:49.022Z,1.80
2018-02-24T15:12:17.244Z,1.80
2018-02-24T15:14:44.719Z,1.80
2018-02-24T15:17:12.180Z,2.07
2018-02-24T15:19:39.650Z,1.87
2018-02-24T15:22:07.113Z,1.77
2018-02-24T15:24:34.576Z,1.63
2018-02-24T15:27:02.028Z,1.63
2018-02-24T15:29:29.507Z,2.00
2018-02-24T15:31:57.725Z,1.70
2018-02-24T15:34:25.196Z,1.77
2018-02-24T15:36:52.653Z,1.70
2018-02-24T15:39:20.331Z,1.53
2018-02-24T15:41:47.781Z,1.67
2018-02-24T15:44:16.754Z,1.57
2018-02-24T15:46:44.213Z,1.57
2018-02-24T15:49:11.674Z,1.83
2018-02-24T15:51:39.136Z,1.93
2018-02-24T15:54:07.411Z,1.30
2018-02-24T15:56:34.869Z,1.57
2018-02-24T15:59:02.328Z,1.70
2018-02-24T16:01:29.773Z,1.43
2018-02-24T16:03:57.241Z,1.50
2018-02-24T16:06:24.785Z,1.33
2018-02-24T16:08:52.255Z,1.40
2018-02-24T16:11:19.716Z,1.63
2018-02-24T16:13:48.696Z,1.47
2018-02-24T16:16:16.176Z,1.50
2018-02-24T16:18:44.406Z,1.80
2018-02-24T16:21:11.874Z,1.20
2018-02-24T16:23:39.351Z,1.73
2018-02-24T16:26:06.901Z,1.67
2018-02-24T16:28:35.118Z,1.60
2018-02-24T16:31:02.618Z,1.50
2018-02-24T16:33:30.077Z,1.50
2018-02-24T16:35:57.533Z,1.77
2018-02-24T16:38:24.990Z,1.80
2018-02-24T16:40:52.458Z,1.50
2018-02-24T16:43:19.910Z,1.63
2018-02-24T16:45:47.462Z,1.57
2018-02-24T16:48:15.700Z,1.60
2018-02-24T16:50:43.171Z,1.70
2018-02-24T16:53:10.619Z,2.00
2018-02-24T16:55:38.078Z,1.53
2018-02-24T16:58:05.543Z,1.77
2018-02-24T17:00:33.032Z,2.10
2018-02-24T17:03:00.491Z,1.60
2018-02-24T17:05:27.957Z,1.33
2018-02-24T17:07:56.177Z,1.27
2018-02-24T17:10:23.646Z,1.60
2018-02-24T17:12:51.094Z,1.50
2018-02-24T17:15:18.553Z,1.63
2018-02-24T17:17:46.003Z,1.60
2018-02-24T17:20:13.511Z,1.60
2018-02-24T17:22:40.917Z,1.53
2018-02-24T17:25:08.439Z,1.57
2018-02-24T17:27:35.838Z,1.60
2018-02-24T17:30:03.306Z,2.27
2018-02-24T17:32:30.777Z,1.50
2018-02-24T17:34:58.221Z,1.80
2018-02-24T17:37:25.671Z,1.70
2018-02-24T17:39:53.135Z,1.30
2018-02-24T17:42:20.590Z,1.60
2018-02-24T17:44:48.072Z,1.60
2018-02-24T17:47:15.710Z,1.30
2018-02-24T17:49:43.177Z,1.83
2018-02-24T17:52:11.402Z,1.50
2018-02-24T17:54:38.878Z,1.80
2018-02-24T17:57:06.329Z,1.57
2018-02-24T17:59:33.793Z,1.77
2018-02-24T18:02:01.258Z,1.57
2018-02-24T18:04:28.734Z,1.57
2018-02-24T18:06:56.962Z,1.60
2018-02-24T18:09:24.411Z,1.50
2018-02-24T18:11:51.878Z,1.37
2018-02-24T18:14:19.330Z,1.40
2018-02-24T18:16:46.793Z,1.30
2018-02-24T18:19:14.246Z,1.50
2018-02-24T18:21:42.010Z,1.60
2018-02-24T18:24:09.703Z,1.77
2018-02-24T18:26:37.166Z,1.40
2018-02-24T18:29:05.685Z,1.60
2018-02-24T18:31:33.156Z,1.47
2018-02-24T18:34:00.613Z,1.33
2018-02-24T18:36:28.106Z,1.53
2018-02-24T18:38:55.636Z,1.20
2018-02-24T18:41:23.817Z,1.83
2018-02-24T18:43:51.276Z,1.10
2018-02-24T18:46:18.761Z,1.30
2018-02-24T18:48:46.974Z,1.30
2018-02-24T18:51:14.435Z,1.47
2018-02-24T18:53:41.889Z,1.37
2018-02-24T18:56:09.350Z,1.30
2018-02-24T18:58:36.807Z,1.50
2018-02-24T19:01:04.271Z,1.20
2018-02-24T19:03:31.727Z,1.33
2018-02-24T19:05:59.195Z,1.30
2018-02-24T19:08:26.645Z,1.30
2018-02-24T19:10:54.121Z,1.10
2018-02-24T19:13:23.094Z,1.50
2018-02-24T19:15:50.563Z,1.10
2018-02-24T19:18:18.009Z,1.10
2018-02-24T19:20:45.466Z,1.20
2018-02-24T19:23:12.965Z,1.50
2018-02-24T19:25:41.177Z,1.30
2018-02-24T19:28:08.663Z,1.70
2018-02-24T19:30:36.114Z,1.60
2018-02-24T19:33:03.577Z,1.00
2018-02-24T19:35:31.035Z,1.57
2018-02-24T19:37:58.499Z,1.30
2018-02-24T19:40:25.952Z,0.80
2018-02-24T19:42:54.182Z,1.07
2018-02-24T19:45:21.637Z,1.40
2018-02-24T19:47:49.095Z,1.40
2018-02-24T19:50:16.562Z,1.30
2018-02-24T19:52:44.026Z,1.23
2018-02-24T19:55:11.494Z,1.50
2018-02-24T19:57:38.953Z,1.60
2018-02-24T20:00:06.410Z,1.43
2018-02-24T20:02:33.889Z,1.10
2018-02-24T20:05:02.294Z,1.10
2018-02-24T20:07:29.618Z,1.10
2018-02-24T20:09:57.843Z,1.27
2018-02-24T20:12:25.328Z,1.00
2018-02-24T20:14:52.778Z,1.40
2018-02-24T20:17:20.237Z,1.30
2018-02-24T20:19:47.698Z,1.40
2018-02-24T20:22:15.200Z,1.27
2018-02-24T20:24:42.615Z,1.23
2018-02-24T20:27:10.068Z,1.37
2018-02-24T20:29:37.538Z,1.40
2018-02-24T20:32:04.994Z,1.27
2018-02-24T20:34:32.458Z,1.30
2018-02-24T20:37:00.723Z,1.33
2018-02-24T20:39:28.189Z,1.30
2018-02-24T20:41:56.410Z,1.92
2018-02-24T20:44:23.873Z,1.40
2018-02-24T20:46:51.349Z,1.80
2018-02-24T20:49:18.818Z,1.50
2018-02-24T20:51:46.269Z,1.10
2018-02-24T20:54:13.738Z,1.60
2018-02-24T20:56:41.965Z,1.50
2018-02-24T20:59:09.449Z,1.10
2018-02-24T21:01:36.903Z,1.20
2018-02-24T21:04:04.393Z,1.17
2018-02-24T21:06:32.623Z,1.23
2018-02-24T21:09:00.092Z,1.27
2018-02-24T21:11:27.551Z,1.00
2018-02-24T21:13:55.009Z,1.50
2018-02-24T21:16:22.496Z,1.33
2018-02-24T21:18:50.725Z,1.30
2018-02-24T21:21:18.213Z,1.47
2018-02-24T21:23:46.495Z,1.10
2018-02-24T21:26:13.979Z,1.00
2018-02-24T21:28:41.457Z,1.20
2018-02-24T21:31:08.922Z,1.20
2018-02-24T21:33:36.389Z,1.40
2018-02-24T21:36:03.869Z,1.13
2018-02-24T21:38:32.091Z,1.00
2018-02-24T21:40:59.558Z,1.20
2018-02-24T21:43:27.006Z,1.53
2018-02-24T21:45:54.488Z,1.27
2018-02-24T21:48:21.954Z,1.27
2018-02-24T21:50:49.419Z,1.00
2018-02-24T21:53:16.866Z,1.13
2018-02-24T21:55:44.435Z,1.20
2018-02-24T21:58:12.657Z,1.20
2018-02-24T22:00:40.158Z,1.20
2018-02-24T22:03:07.963Z,1.10
2018-02-24T22:05:35.484Z,1.00
2018-02-24T22:08:03.742Z,1.20
2018-02-24T22:10:31.218Z,1.00
2018-02-24T22:12:59.447Z,1.30
2018-02-24T22:15:26.914Z,1.17
2018-02-24T22:17:54.365Z,1.10
2018-02-24T22:20:21.833Z,1.00
2018-02-24T22:22:49.310Z,0.97
2018-02-24T22:25:16.785Z,1.20
2018-02-24T22:27:45.001Z,1.20
2018-02-24T22:30:12.489Z,1.10
2018-02-24T22:32:39.959Z,1.10
2018-02-24T22:35:08.243Z,0.87
2018-02-24T22:37:36.465Z,0.97
2018-02-24T22:40:03.970Z,1.10
2018-02-24T22:42:32.215Z,1.00
2018-02-24T22:44:59.711Z,1.03
2018-02-24T22:47:33.777Z,0.90
2018-02-24T22:50:01.230Z,0.97
2018-02-24T22:52:28.693Z,1.00
2018-02-24T22:54:56.170Z,1.20
2018-02-24T22:57:24.410Z,1.13
2018-02-24T22:59:51.878Z,1.10
2018-02-24T23:02:19.346Z,1.10
2018-02-24T23:04:46.904Z,1.03
2018-02-24T23:07:14.454Z,1.20
2018-02-24T23:09:42.018Z,1.00
2018-02-24T23:12:10.259Z,1.23
2018-02-24T23:14:37.711Z,1.93
2018-02-24T23:17:05.184Z,2.10
2018-02-24T23:19:32.628Z,1.73
2018-02-24T23:22:00.088Z,1.43
2018-02-24T23:24:27.533Z,1.73
2018-02-24T23:26:55.026Z,1.80
2018-02-24T23:29:22.483Z,1.80
2018-02-24T23:31:49.982Z,1.67
2018-02-24T23:34:17.429Z,1.53
2018-02-24T23:36:45.645Z,1.70
2018-02-24T23:39:13.096Z,1.60
2018-02-24T23:41:40.561Z,1.70
2018-02-24T23:44:08.005Z,1.80
2018-02-24T23:46:35.756Z,1.70
2018-02-24T23:49:03.220Z,1.63
2018-02-24T23:51:30.701Z,1.40
2018-02-24T23:53:58.273Z,1.60
2018-02-24T23:56:25.724Z,1.40
2018-02-24T23:58:53.176Z,1.87
